Historique des mesures à Cassis (13260), France
Quotidien Résumé Janvier 17, 2018 Unités:  Métrique    US   Métrique/US
« Précédent (Jour)
Suivant (Jour) »
Quotidien Hebdomadaire Mensuel Annuel Période au choix
  Maximum: Minimum: Moyenne:
Température: TemperatureC °C 9.2 °C 11.4 °C
Point de rosée: DewpointC °C -2.2 °C 1.8 °C
Humidité: Humidity % 38 % 49 %
Vitesse du vent: 0 km/h 0 km/h 26.7 km/h
Rafales: 0 km/h - -
Vent:- - WSW
Pression: PressurehPa hPa 1006.7 hPa -
Précipitations: 0.0 mm    
Historical Graphs
 
 
Mesures pour : Janvier 17, 2018
Heure Temperature Point de rosée Pression Vent Vitesse du vent Rafales Humidité Pluie (par heure) Conditions
TemperatureC °C DewpointC °C PressurehPa hPa Calm     Humidity % HourlyPrecipMM mm SoftwareType W/m2
00:12 14.6 °C 9.2 °C 1008.0 hPa NNW 8.9 km/h 29.5 km/h 70 % 0.0 mm open2300-1.11 W/m2
01:12 14.5 °C 8.9 °C 1007.0 hPa Calm   8 km/h 69 % 0.0 mm open2300-1.11 W/m2
02:12 14.4 °C 9.2 °C 1006.7 hPa WNW 27.7 km/h 27.7 km/h 71 % 0.0 mm open2300-1.11 W/m2
05:12 13.1 °C 7.3 °C 1006.7 hPa WNW 22.5 km/h 48.6 km/h 68 % 0.0 mm open2300-1.11 W/m2
06:12 12.8 °C 5.9 °C 1006.7 hPa WNW 44.6 km/h 48.6 km/h 63 % 0.0 mm open2300-1.11 W/m2
07:12 12.5 °C 4.2 °C 1007.3 hPa WSW 51.5 km/h 51.5 km/h 57 % 0.0 mm open2300-1.11 W/m2
08:12 11.8 °C 3.5 °C 1008.7 hPa West 8 km/h 37.5 km/h 57 % 0.0 mm open2300-1.11 W/m2
09:12 11.6 °C 3.1 °C 1009.4 hPa NNW 24.8 km/h 37.5 km/h 56 % 0.0 mm open2300-1.11 W/m2
10:12 11.3 °C 2.3 °C 1010.7 hPa North 24.3 km/h 54.4 km/h 54 % 0.0 mm open2300-1.11 W/m2
11:12 11.5 °C 1.7 °C 1011.7 hPa NNW 27.2 km/h 27.2 km/h 51 % 0.0 mm open2300-1.11 W/m2
12:12 12.3 °C 0.6 °C 1011.7 hPa NNW 15.6 km/h 27.2 km/h 45 % 0.0 mm open2300-1.11 W/m2
13:12 12.2 °C -0.1 °C 1011.7 hPa NW 48.6 km/h 48.6 km/h 43 % 0.0 mm open2300-1.11 W/m2
14:12 12.3 °C -0.3 °C 1011.4 hPa WNW 40.7 km/h 123.4 km/h 42 % 0.0 mm open2300-1.11 W/m2
15:12 12.3 °C -1.7 °C 1012.1 hPa NNW 45.9 km/h 48.6 km/h 38 % 0.0 mm open2300-1.11 W/m2
16:12 12.1 °C -1.9 °C 1013.1 hPa WNW 38.3 km/h 42.2 km/h 38 % 0.0 mm open2300-1.11 W/m2
17:12 11.4 °C -2.1 °C 1013.8 hPa North 27.2 km/h 27.2 km/h 39 % 0.0 mm open2300-1.11 W/m2
18:12 10.9 °C -1.6 °C 1015.1 hPa North 18.7 km/h 33.6 km/h 42 % 0.0 mm open2300-1.11 W/m2
19:12 10.6 °C -1.8 °C 1015.8 hPa NW 19.2 km/h 19.6 km/h 42 % 0.0 mm open2300-1.11 W/m2
20:12 10.1 °C -2.0 °C 1016.8 hPa WNW 41.7 km/h 41.7 km/h 43 % 0.0 mm open2300-1.11 W/m2
21:12 9.6 °C -2.2 °C 1017.5 hPa North 22.5 km/h 28.5 km/h 44 % 0.0 mm open2300-1.11 W/m2
23:12 9.2 °C -1.9 °C 1018.2 hPa WNW 28.5 km/h 31.9 km/h 46 % 0.0 mm open2300-1.11 W/m2
Observations météo à CASSIS
WU-History script by Weather Underground - 1 mb